Time;durP1;ratioP1;P1;durP2;ratioP2;P2;SDS_P1;SDS_P2;PMS_P1;PMS_P2;Temp;Humidity;BMP_temperature;BMP_pressure;BME280_temperature;BME280_humidity;BME280_pressure;Samples;Min_cycle;Max_cycle;Signal;HPM_P1;HPM_P2
2022/02/18 00:00:37;;;;;;;2.42;1.38;;;6.90;99.90;;;;;;5094442;28;20027;-69
2022/02/18 00:03:03;;;;;;;1.40;1.00;;;7.00;99.90;;;;;;5106707;27;20048;-68
2022/02/18 00:05:28;;;;;;;4.03;1.65;;;7.00;99.90;;;;;;5104631;28;20016;-68
2022/02/18 00:07:54;;;;;;;7.05;2.58;;;7.00;99.90;;;;;;5109258;27;20035;-68
2022/02/18 00:10:20;;;;;;;3.47;1.65;;;7.00;99.90;;;;;;5107223;27;20493;-68
2022/02/18 00:12:46;;;;;;;2.55;1.15;;;7.00;99.90;;;;;;5104420;28;20031;-68
2022/02/18 00:15:11;;;;;;;3.67;1.45;;;7.00;99.90;;;;;;5114099;27;20407;-68
2022/02/18 00:17:38;;;;;;;1.48;1.08;;;7.00;99.90;;;;;;5107160;27;20031;-69
2022/02/18 00:20:06;;;;;;;4.75;2.05;;;7.00;99.90;;;;;;5103469;28;20031;-69
2022/02/18 00:22:32;;;;;;;6.05;1.63;;;7.00;99.90;;;;;;5109360;27;20546;-69
2022/02/18 00:24:57;;;;;;;3.28;1.55;;;6.90;99.90;;;;;;5106584;28;20020;-69
2022/02/18 00:27:23;;;;;;;3.47;1.35;;;6.80;99.90;;;;;;5113000;27;20050;-68
2022/02/18 00:29:49;;;;;;;3.33;1.55;;;6.90;99.90;;;;;;5115800;28;20019;-69
2022/02/18 00:32:14;;;;;;;1.40;1.17;;;6.80;99.90;;;;;;5088222;28;20024;-69
2022/02/18 00:34:40;;;;;;;4.15;1.58;;;6.80;99.90;;;;;;5106517;28;20031;-69
2022/02/18 00:37:06;;;;;;;1.65;1.05;;;6.80;99.90;;;;;;5107430;28;20032;-68
2022/02/18 00:39:32;;;;;;;6.22;1.58;;;6.80;99.90;;;;;;5107901;28;20047;-69
2022/02/18 00:41:59;;;;;;;1.85;1.25;;;6.80;99.90;;;;;;5101301;28;20054;-69
2022/02/18 00:44:24;;;;;;;4.68;1.60;;;6.80;99.90;;;;;;5089588;28;20032;-68
2022/02/18 00:46:53;;;;;;;15.32;1.88;;;6.80;99.90;;;;;;5093702;28;20468;-68
2022/02/18 00:49:20;;;;;;;17.63;2.60;;;6.70;99.90;;;;;;5102723;28;20036;-69
2022/02/18 00:51:46;;;;;;;3.00;1.85;;;6.70;99.90;;;;;;5103653;28;20026;-68
2022/02/18 00:54:12;;;;;;;4.03;1.92;;;6.80;99.90;;;;;;5103816;28;20028;-68
2022/02/18 00:56:41;;;;;;;4.72;1.83;;;6.70;99.90;;;;;;5110124;28;20022;-69
2022/02/18 00:59:07;;;;;;;6.95;2.33;;;6.70;99.90;;;;;;5102733;28;20101;-69
2022/02/18 01:01:33;;;;;;;1.85;0.98;;;6.70;99.90;;;;;;5109982;28;20641;-68
2022/02/18 01:03:59;;;;;;;10.05;1.55;;;6.70;99.90;;;;;;5088516;28;20119;-68
2022/02/18 01:06:26;;;;;;;2.65;1.30;;;6.80;99.90;;;;;;5105773;28;20040;-69
2022/02/18 01:08:52;;;;;;;3.45;1.27;;;6.80;99.90;;;;;;5096711;28;20503;-68
2022/02/18 01:11:17;;;;;;;2.80;1.50;;;6.80;99.90;;;;;;5101840;28;20039;-68
2022/02/18 01:13:43;;;;;;;5.75;1.45;;;6.90;99.90;;;;;;5112626;27;20024;-68
2022/02/18 01:16:09;;;;;;;3.72;1.27;;;6.90;99.90;;;;;;5107619;27;20020;-68
2022/02/18 01:18:35;;;;;;;7.63;2.47;;;6.90;99.90;;;;;;5110794;28;20069;-69
2022/02/18 01:21:00;;;;;;;3.60;1.48;;;6.90;99.90;;;;;;5105439;28;20038;-68
2022/02/18 01:23:26;;;;;;;18.23;2.50;;;6.80;99.90;;;;;;5106909;28;20020;-69
2022/02/18 01:25:52;;;;;;;4.47;1.92;;;6.80;99.90;;;;;;5100048;28;20020;-69
2022/02/18 01:28:17;;;;;;;3.95;1.17;;;6.90;99.90;;;;;;5107238;28;20407;-69
2022/02/18 01:30:43;;;;;;;3.72;1.65;;;7.00;99.90;;;;;;5095874;28;20114;-69
2022/02/18 01:33:09;;;;;;;5.40;1.98;;;7.00;99.90;;;;;;5093167;28;20016;-69
2022/02/18 01:35:34;;;;;;;7.95;3.05;;;6.90;99.90;;;;;;5109474;28;20048;-68
2022/02/18 01:38:02;;;;;;;2.47;1.23;;;6.90;99.90;;;;;;5113702;27;20502;-69
2022/02/18 01:40:28;;;;;;;1.40;1.15;;;6.90;99.90;;;;;;5103724;28;20031;-69
2022/02/18 01:42:53;;;;;;;7.70;2.35;;;7.00;99.90;;;;;;5109209;28;20403;-68
2022/02/18 01:45:19;;;;;;;3.58;1.50;;;7.00;99.90;;;;;;5090227;28;20024;-69
2022/02/18 01:47:45;;;;;;;3.72;1.17;;;7.00;99.90;;;;;;5107388;28;20115;-69
2022/02/18 01:50:11;;;;;;;6.90;2.38;;;7.00;99.90;;;;;;5105329;28;20123;-69
2022/02/18 01:52:41;;;;;;;6.60;2.20;;;7.00;99.90;;;;;;5104324;28;20472;-69
2022/02/18 01:55:12;;;;;;;2.65;1.60;;;7.00;99.90;;;;;;5089085;28;20007;-69
2022/02/18 01:57:48;;;;;;;4.55;1.48;;;7.00;99.90;;;;;;5103699;28;20032;-69
2022/02/18 02:00:17;;;;;;;2.13;1.30;;;6.90;99.90;;;;;;5106614;28;20033;-69
2022/02/18 02:02:44;;;;;;;3.40;1.23;;;7.00;99.90;;;;;;5100692;28;20024;-69
2022/02/18 02:05:10;;;;;;;7.22;1.88;;;7.00;99.90;;;;;;5106699;28;20111;-69
2022/02/18 02:07:39;;;;;;;4.13;1.15;;;7.00;99.90;;;;;;5106045;28;20016;-69
2022/02/18 02:10:06;;;;;;;4.38;1.77;;;7.00;99.90;;;;;;5104296;28;20012;-69
2022/02/18 02:12:38;;;;;;;2.03;1.38;;;7.00;99.90;;;;;;5103243;28;20095;-69
2022/02/18 02:15:06;;;;;;;2.67;1.35;;;7.00;99.90;;;;;;5106213;28;20019;-69
2022/02/18 02:17:32;;;;;;;5.57;1.45;;;7.00;99.90;;;;;;5102930;28;20128;-69
2022/02/18 02:19:57;;;;;;;19.20;2.22;;;7.00;99.90;;;;;;5106424;28;20029;-69
2022/02/18 02:22:27;;;;;;;3.80;1.52;;;7.00;99.90;;;;;;5093929;28;20019;-69
2022/02/18 02:24:53;;;;;;;2.95;1.58;;;7.10;99.90;;;;;;5086443;28;20020;-69
2022/02/18 02:27:22;;;;;;;7.57;1.80;;;7.00;99.90;;;;;;5106949;28;20051;-69
2022/02/18 02:29:48;;;;;;;5.47;2.00;;;7.10;99.90;;;;;;5102348;28;20532;-69
2022/02/18 02:32:14;;;;;;;6.22;1.63;;;7.00;99.90;;;;;;5108327;28;20036;-69
2022/02/18 02:34:40;;;;;;;5.60;1.17;;;7.00;99.90;;;;;;5090644;28;20502;-69
2022/02/18 02:37:06;;;;;;;3.78;1.13;;;7.00;99.90;;;;;;5108998;28;20020;-69
2022/02/18 02:39:33;;;;;;;16.70;2.22;;;7.00;99.90;;;;;;5110145;27;20024;-69
2022/02/18 02:42:00;;;;;;;3.63;1.52;;;7.10;99.90;;;;;;5105098;27;20051;-69
2022/02/18 02:44:27;;;;;;;2.85;1.60;;;7.10;99.90;;;;;;5096029;28;20102;-68
2022/02/18 02:46:53;;;;;;;5.85;1.60;;;7.10;99.90;;;;;;5109268;27;20475;-68
2022/02/18 02:49:18;;;;;;;4.63;1.20;;;7.10;99.90;;;;;;5086797;28;20026;-69
2022/02/18 02:51:44;;;;;;;4.57;1.25;;;7.10;99.90;;;;;;5101031;28;20099;-69
2022/02/18 02:54:09;;;;;;;7.72;1.80;;;7.10;99.90;;;;;;5100405;28;20078;-69
2022/02/18 02:56:35;;;;;;;2.47;1.23;;;7.10;99.90;;;;;;5085241;28;20027;-69
2022/02/18 02:59:01;;;;;;;4.80;1.60;;;7.20;99.90;;;;;;5112128;27;20059;-69
2022/02/18 03:01:26;;;;;;;3.63;1.33;;;7.20;99.90;;;;;;5102277;28;20034;-69
2022/02/18 03:03:52;;;;;;;3.90;1.40;;;7.20;99.90;;;;;;5097950;28;20043;-69
2022/02/18 03:06:18;;;;;;;1.92;0.95;;;7.10;99.90;;;;;;5106005;27;20019;-69
2022/02/18 03:08:43;;;;;;;4.15;1.13;;;7.20;99.90;;;;;;5108077;27;20106;-69
2022/02/18 03:11:15;;;;;;;3.35;1.35;;;7.20;99.90;;;;;;5110135;27;20023;-69
2022/02/18 03:13:41;;;;;;;8.07;1.27;;;7.20;99.90;;;;;;5107904;28;20088;-68
2022/02/18 03:16:07;;;;;;;6.00;3.03;;;7.20;99.90;;;;;;5109202;27;20383;-68
2022/02/18 03:18:33;;;;;;;2.83;1.25;;;7.20;99.90;;;;;;5104378;28;20029;-69
2022/02/18 03:20:58;;;;;;;7.38;2.22;;;7.20;99.90;;;;;;5103073;28;20042;-69
2022/02/18 03:23:24;;;;;;;3.65;1.65;;;7.20;99.90;;;;;;5102935;27;20228;-69
2022/02/18 03:25:50;;;;;;;5.03;1.38;;;7.20;99.90;;;;;;5102026;27;20067;-69
2022/02/18 03:28:15;;;;;;;3.22;1.33;;;7.20;99.90;;;;;;5083596;28;20044;-69
2022/02/18 03:30:41;;;;;;;3.55;1.10;;;7.20;99.90;;;;;;5086735;28;20464;-69
2022/02/18 03:33:10;;;;;;;2.17;1.25;;;7.20;99.90;;;;;;5077732;28;20032;-69
2022/02/18 03:35:37;;;;;;;2.77;1.50;;;7.20;99.90;;;;;;5089372;28;20040;-69
2022/02/18 03:38:03;;;;;;;2.33;1.40;;;7.20;99.90;;;;;;5086401;28;20254;-69
2022/02/18 03:40:28;;;;;;;7.65;1.40;;;7.20;99.90;;;;;;5081267;28;20031;-69
2022/02/18 03:42:54;;;;;;;3.63;1.13;;;7.20;99.90;;;;;;5080908;28;20032;-69
2022/02/18 03:45:20;;;;;;;10.23;1.08;;;7.20;99.90;;;;;;5086827;28;20479;-69
2022/02/18 03:47:45;;;;;;;2.55;1.10;;;7.20;99.90;;;;;;5082741;28;20027;-69
2022/02/18 03:50:11;;;;;;;2.95;1.23;;;7.20;99.90;;;;;;5089414;28;20016;-69
2022/02/18 03:52:36;;;;;;;6.28;2.13;;;7.20;99.90;;;;;;5080193;28;20472;-68
2022/02/18 03:55:02;;;;;;;2.17;1.30;;;7.10;99.90;;;;;;5082080;28;20016;-69
2022/02/18 03:57:28;;;;;;;1.58;1.00;;;7.10;99.90;;;;;;5081492;28;20089;-69
2022/02/18 03:59:53;;;;;;;2.00;1.08;;;7.20;99.90;;;;;;5078505;28;20085;-69
2022/02/18 04:02:19;;;;;;;6.38;1.75;;;7.10;99.90;;;;;;5089220;28;20054;-69
2022/02/18 04:04:44;;;;;;;3.70;2.55;;;7.10;99.90;;;;;;5081846;28;20024;-68
2022/02/18 04:07:11;;;;;;;1.60;1.02;;;7.20;99.90;;;;;;5087089;28;20439;-69
2022/02/18 04:09:37;;;;;;;8.50;0.95;;;7.20;99.90;;;;;;5082207;28;20027;-68
2022/02/18 04:12:04;;;;;;;2.75;1.17;;;7.20;99.90;;;;;;5084708;28;20058;-69
2022/02/18 04:14:30;;;;;;;5.57;1.02;;;7.20;99.90;;;;;;5085084;28;20018;-69
2022/02/18 04:16:56;;;;;;;8.20;1.55;;;7.20;99.90;;;;;;5089668;28;20507;-69
2022/02/18 04:19:22;;;;;;;5.38;1.27;;;7.20;99.90;;;;;;5078865;28;20485;-69
2022/02/18 04:21:47;;;;;;;2.30;1.08;;;7.20;99.90;;;;;;5084931;28;20032;-69
2022/02/18 04:24:13;;;;;;;5.43;1.77;;;7.20;99.90;;;;;;5077548;28;20036;-69
2022/02/18 04:26:39;;;;;;;14.07;2.22;;;7.20;99.90;;;;;;5083145;28;20097;-68
2022/02/18 04:29:04;;;;;;;6.50;1.20;;;7.20;99.90;;;;;;5085662;28;20531;-68
2022/02/18 04:31:30;;;;;;;5.03;1.40;;;7.20;99.90;;;;;;5093562;28;20020;-68
2022/02/18 04:33:55;;;;;;;6.78;1.35;;;7.20;99.90;;;;;;5105986;28;20024;-69
2022/02/18 04:36:21;;;;;;;17.65;2.35;;;7.20;99.90;;;;;;5106532;28;20027;-69
2022/02/18 04:38:47;;;;;;;9.80;1.38;;;7.20;99.90;;;;;;5105104;28;20028;-69
2022/02/18 04:41:12;;;;;;;12.00;1.55;;;7.20;99.90;;;;;;5084502;28;20032;-69
2022/02/18 04:43:38;;;;;;;8.73;1.40;;;7.20;99.90;;;;;;5105092;28;20095;-69
2022/02/18 04:46:03;;;;;;;1.58;0.98;;;7.20;99.90;;;;;;5108261;28;20035;-69
2022/02/18 04:48:29;;;;;;;1.33;0.95;;;7.30;99.90;;;;;;5108113;27;20020;-69
2022/02/18 04:50:55;;;;;;;8.63;1.60;;;7.30;99.90;;;;;;5100318;28;20096;-69
2022/02/18 04:53:20;;;;;;;6.25;1.30;;;7.20;99.90;;;;;;5081992;28;20373;-68
2022/02/18 04:55:46;;;;;;;6.95;1.92;;;7.20;99.90;;;;;;5108697;27;20493;-69
2022/02/18 04:58:11;;;;;;;8.27;1.88;;;7.30;99.90;;;;;;5110319;27;20040;-68
2022/02/18 05:00:38;;;;;;;11.13;2.35;;;7.30;99.90;;;;;;5102166;28;20057;-68
2022/02/18 05:03:03;;;;;;;2.95;1.08;;;7.30;99.90;;;;;;5109695;27;20401;-68
2022/02/18 05:05:29;;;;;;;12.45;1.42;;;7.30;99.90;;;;;;5113664;27;20026;-68
2022/02/18 05:07:54;;;;;;;2.30;1.58;;;7.30;99.90;;;;;;5104952;28;20068;-68
2022/02/18 05:10:20;;;;;;;0.95;0.80;;;7.30;99.90;;;;;;5104052;28;20399;-68
2022/02/18 05:12:45;;;;;;;4.43;2.42;;;7.30;99.90;;;;;;5089905;28;20052;-68
2022/02/18 05:15:11;;;;;;;5.47;1.30;;;7.30;99.90;;;;;;5107729;28;20479;-68
2022/02/18 05:17:37;;;;;;;10.98;1.35;;;7.40;99.90;;;;;;5106257;28;20040;-68
2022/02/18 05:20:03;;;;;;;7.38;1.73;;;7.40;99.90;;;;;;5096618;28;20020;-68
2022/02/18 05:22:29;;;;;;;7.38;1.25;;;7.40;99.90;;;;;;5101075;28;20047;-68
2022/02/18 05:24:55;;;;;;;2.25;1.00;;;7.40;99.90;;;;;;5105739;28;20514;-68
2022/02/18 05:27:20;;;;;;;8.27;1.35;;;7.40;99.90;;;;;;5108303;28;20066;-68
2022/02/18 05:29:46;;;;;;;7.65;2.13;;;7.40;99.90;;;;;;5087664;28;20047;-68
2022/02/18 05:32:12;;;;;;;15.65;2.10;;;7.30;99.90;;;;;;5090991;28;20080;-68
2022/02/18 05:34:37;;;;;;;10.88;1.45;;;7.40;99.90;;;;;;5108320;27;20034;-68
2022/02/18 05:37:04;;;;;;;8.60;1.63;;;7.40;99.90;;;;;;5106632;28;20020;-68
2022/02/18 05:39:30;;;;;;;5.32;2.00;;;7.40;99.90;;;;;;5110929;27;20042;-68
2022/02/18 05:41:55;;;;;;;3.38;1.48;;;7.40;99.90;;;;;;5084998;28;20527;-69
2022/02/18 05:44:21;;;;;;;5.35;1.75;;;7.50;99.90;;;;;;5099580;27;20031;-68
2022/02/18 05:46:47;;;;;;;8.80;1.98;;;7.40;99.90;;;;;;5109853;27;20024;-68
2022/02/18 05:49:13;;;;;;;2.58;1.25;;;7.40;99.90;;;;;;5118294;27;20532;-68
2022/02/18 05:51:39;;;;;;;7.30;1.92;;;7.40;99.90;;;;;;5103215;28;20028;-68
2022/02/18 05:54:04;;;;;;;10.43;1.65;;;7.40;99.90;;;;;;5112282;28;20031;-68
2022/02/18 05:56:30;;;;;;;5.82;1.58;;;7.40;99.90;;;;;;5106760;27;20031;-68
2022/02/18 05:58:56;;;;;;;2.38;1.42;;;7.40;99.90;;;;;;5108105;27;20443;-68
2022/02/18 06:01:22;;;;;;;1.02;0.90;;;7.40;99.90;;;;;;5106328;28;20051;-69
2022/02/18 06:03:51;;;;;;;8.30;1.20;;;7.30;99.90;;;;;;5110146;27;20066;-68
2022/02/18 06:06:16;;;;;;;4.25;1.10;;;7.40;99.90;;;;;;5112373;27;20087;-69
2022/02/18 06:08:42;;;;;;;10.68;1.52;;;7.30;99.90;;;;;;5114230;27;20161;-68
2022/02/18 06:11:08;;;;;;;3.22;1.13;;;7.30;99.90;;;;;;5106007;27;20531;-68
2022/02/18 06:13:33;;;;;;;1.58;1.13;;;7.40;99.90;;;;;;5109330;27;20110;-68
2022/02/18 06:15:59;;;;;;;1.65;0.82;;;7.40;99.90;;;;;;5109073;28;20468;-68
2022/02/18 06:18:25;;;;;;;2.95;1.20;;;7.40;99.90;;;;;;5092869;28;20400;-68
2022/02/18 06:20:51;;;;;;;3.95;1.08;;;7.40;99.90;;;;;;5108976;27;20516;-68
2022/02/18 06:23:17;;;;;;;6.22;1.10;;;7.40;99.90;;;;;;5103458;27;20016;-68
2022/02/18 06:25:42;;;;;;;0.70;0.70;;;7.40;99.90;;;;;;5086933;28;20030;-68
2022/02/18 06:28:11;;;;;;;1.65;1.00;;;7.40;99.90;;;;;;5114740;27;20082;-68
2022/02/18 06:30:40;;;;;;;2.83;1.40;;;7.40;99.90;;;;;;5107909;27;20118;-68
2022/02/18 06:33:06;;;;;;;3.65;1.45;;;7.40;99.90;;;;;;5087152;28;20028;-68
2022/02/18 06:35:33;;;;;;;6.53;1.10;;;7.40;99.90;;;;;;5110594;28;20020;-68
2022/02/18 06:37:59;;;;;;;4.80;1.35;;;7.30;99.90;;;;;;5115524;27;20030;-68
2022/02/18 06:40:25;;;;;;;4.22;2.00;;;7.20;99.90;;;;;;5088432;28;20020;-68
2022/02/18 06:42:50;;;;;;;11.45;1.83;;;7.10;99.90;;;;;;5106840;27;20026;-68
2022/02/18 06:45:18;;;;;;;1.70;1.02;;;7.00;99.90;;;;;;5110994;27;20064;-68
2022/02/18 06:47:48;;;;;;;2.53;1.10;;;6.90;99.90;;;;;;5115237;27;20460;-68
2022/02/18 06:50:15;;;;;;;2.13;1.13;;;6.80;99.90;;;;;;5110935;27;20018;-68
2022/02/18 06:52:41;;;;;;;2.35;1.00;;;6.80;99.90;;;;;;5089716;28;20023;-67
2022/02/18 06:55:07;;;;;;;3.45;1.13;;;6.80;99.90;;;;;;5110711;27;20140;-67
2022/02/18 06:57:36;;;;;;;4.47;1.70;;;6.80;99.90;;;;;;5107267;27;20456;-67
2022/02/18 07:00:03;;;;;;;8.23;1.35;;;6.70;99.90;;;;;;5110173;28;20038;-67
2022/02/18 07:02:28;;;;;;;1.42;1.23;;;6.70;99.90;;;;;;5104768;27;20031;-67
2022/02/18 07:04:54;;;;;;;3.17;1.38;;;6.80;99.90;;;;;;5111162;27;20019;-67
2022/02/18 07:07:19;;;;;;;3.85;2.33;;;6.80;99.90;;;;;;5101414;28;20055;-67
2022/02/18 07:09:45;;;;;;;2.45;0.95;;;6.80;99.90;;;;;;5091684;28;20294;-67
2022/02/18 07:12:10;;;;;;;8.52;1.30;;;6.90;99.90;;;;;;5105152;28;20020;-67
2022/02/18 07:14:36;;;;;;;2.92;1.17;;;6.90;99.90;;;;;;5103336;28;20023;-68
2022/02/18 07:17:04;;;;;;;4.15;1.40;;;6.90;99.90;;;;;;5106708;28;20099;-67
2022/02/18 07:19:30;;;;;;;1.65;1.10;;;6.90;99.90;;;;;;5103769;28;20028;-67
2022/02/18 07:21:56;;;;;;;1.77;0.82;;;6.90;99.90;;;;;;5111634;28;20099;-67
2022/02/18 07:24:22;;;;;;;4.20;1.38;;;6.80;99.90;;;;;;5089082;28;20035;-67
2022/02/18 07:26:48;;;;;;;2.80;1.80;;;6.80;99.90;;;;;;5110879;27;20027;-67
2022/02/18 07:29:13;;;;;;;7.22;1.35;;;6.80;99.90;;;;;;5107554;28;20067;-67
2022/02/18 07:31:39;;;;;;;1.25;0.93;;;6.80;99.90;;;;;;5103250;27;20023;-67
2022/02/18 07:34:04;;;;;;;5.88;1.17;;;6.80;99.90;;;;;;5108422;28;20102;-67
2022/02/18 07:36:30;;;;;;;17.58;2.80;;;6.80;99.90;;;;;;5115633;27;20556;-67
2022/02/18 07:38:56;;;;;;;3.17;0.95;;;6.80;99.90;;;;;;5114407;27;20422;-67
2022/02/18 07:41:21;;;;;;;5.38;1.15;;;6.70;99.90;;;;;;5105833;27;20077;-67
2022/02/18 07:43:47;;;;;;;3.80;1.88;;;6.70;99.90;;;;;;5108789;27;20024;-67
2022/02/18 07:46:13;;;;;;;3.35;2.13;;;6.80;99.90;;;;;;5111451;27;20028;-68
2022/02/18 07:48:39;;;;;;;0.85;0.75;;;6.70;99.90;;;;;;5104277;28;20024;-67
2022/02/18 07:51:06;;;;;;;3.10;1.35;;;6.80;99.90;;;;;;5108002;27;20368;-67
2022/02/18 07:53:33;;;;;;;3.40;1.75;;;6.80;99.90;;;;;;5105117;27;20016;-67
2022/02/18 07:55:58;;;;;;;5.55;1.40;;;6.80;99.90;;;;;;5107247;27;20106;-67
2022/02/18 07:58:24;;;;;;;2.67;0.93;;;6.80;99.90;;;;;;5109176;27;20123;-68
2022/02/18 08:00:51;;;;;;;4.13;1.27;;;6.90;99.90;;;;;;5107407;27;20039;-67
2022/02/18 08:03:17;;;;;;;12.05;2.05;;;6.90;99.90;;;;;;5107383;28;20026;-67
2022/02/18 08:05:42;;;;;;;2.78;1.90;;;7.00;99.90;;;;;;5103079;28;20479;-67
2022/02/18 08:08:08;;;;;;;1.65;1.08;;;7.00;99.90;;;;;;5107312;28;20102;-67
2022/02/18 08:10:33;;;;;;;9.27;1.73;;;7.00;99.90;;;;;;5102266;27;20042;-67
2022/02/18 08:12:59;;;;;;;5.28;1.55;;;7.10;99.90;;;;;;5106711;27;20030;-67
2022/02/18 08:15:25;;;;;;;9.00;1.27;;;7.10;99.90;;;;;;5089641;28;20024;-67
2022/02/18 08:17:50;;;;;;;7.20;1.95;;;7.20;99.90;;;;;;5104153;28;20496;-67
2022/02/18 08:20:16;;;;;;;2.33;0.80;;;7.30;99.90;;;;;;5107006;27;20023;-67
2022/02/18 08:22:42;;;;;;;8.77;1.75;;;7.40;99.90;;;;;;5104420;28;20506;-67
2022/02/18 08:25:09;;;;;;;7.63;2.15;;;7.50;99.90;;;;;;5108264;28;20026;-67
2022/02/18 08:27:35;;;;;;;2.47;1.42;;;7.60;99.90;;;;;;5108642;28;20043;-67
2022/02/18 08:30:03;;;;;;;12.32;2.28;;;7.70;99.90;;;;;;5112422;28;20047;-67
2022/02/18 08:32:29;;;;;;;6.63;1.33;;;7.80;99.90;;;;;;5088774;28;20020;-67
2022/02/18 08:34:55;;;;;;;2.50;1.15;;;7.90;99.90;;;;;;5103930;28;20036;-67
2022/02/18 08:37:21;;;;;;;2.30;1.00;;;8.00;99.90;;;;;;5087325;28;20066;-67
2022/02/18 08:39:46;;;;;;;8.63;2.25;;;8.10;99.90;;;;;;5102644;28;20096;-67
2022/02/18 08:42:12;;;;;;;4.80;1.33;;;8.20;99.90;;;;;;5086037;28;20411;-67
2022/02/18 08:44:38;;;;;;;3.63;1.63;;;8.30;99.90;;;;;;5090435;28;20034;-67
2022/02/18 08:47:04;;;;;;;1.95;1.05;;;8.40;99.90;;;;;;5098309;28;20111;-67
2022/02/18 08:49:30;;;;;;;5.43;1.38;;;8.50;99.90;;;;;;5102687;28;20458;-67
2022/02/18 08:51:56;;;;;;;4.72;1.90;;;8.60;99.90;;;;;;5101153;28;20055;-67
2022/02/18 08:54:21;;;;;;;2.35;1.17;;;8.70;99.90;;;;;;5106723;28;20028;-67
2022/02/18 08:56:47;;;;;;;0.85;0.73;;;8.80;99.90;;;;;;5101360;28;20038;-67
2022/02/18 08:59:13;;;;;;;3.20;1.67;;;8.80;99.90;;;;;;5102073;28;20032;-67
2022/02/18 09:01:40;;;;;;;8.48;1.67;;;8.90;99.90;;;;;;5086867;28;20032;-68
2022/02/18 09:04:05;;;;;;;5.75;1.27;;;9.00;99.90;;;;;;5102023;28;20020;-68
2022/02/18 09:06:32;;;;;;;4.78;1.75;;;9.00;99.90;;;;;;5089651;28;20031;-68
2022/02/18 09:08:58;;;;;;;2.90;1.35;;;9.00;99.90;;;;;;5107490;28;20020;-68
2022/02/18 09:11:23;;;;;;;2.42;1.10;;;8.90;99.90;;;;;;5109600;28;20019;-68
2022/02/18 09:13:49;;;;;;;1.42;0.68;;;8.90;99.90;;;;;;5091513;28;20034;-68
2022/02/18 09:16:16;;;;;;;5.53;1.00;;;8.90;99.90;;;;;;5088387;28;20126;-68
2022/02/18 09:18:41;;;;;;;1.55;0.95;;;8.90;99.90;;;;;;5091899;28;20024;-68
2022/02/18 09:21:08;;;;;;;4.03;1.55;;;8.90;99.90;;;;;;5111127;28;20023;-67
2022/02/18 09:23:34;;;;;;;14.02;1.25;;;9.00;99.90;;;;;;5107126;28;20107;-68
2022/02/18 09:26:00;;;;;;;1.75;1.00;;;9.00;99.90;;;;;;5103698;28;20019;-68
2022/02/18 09:28:28;;;;;;;5.05;0.85;;;9.00;99.90;;;;;;5108533;28;20036;-68
2022/02/18 09:30:55;;;;;;;2.85;1.00;;;9.00;99.90;;;;;;5094054;27;20066;-68
2022/02/18 09:33:21;;;;;;;1.42;0.90;;;9.00;99.90;;;;;;5110233;27;20028;-68
2022/02/18 09:35:47;;;;;;;1.92;0.82;;;9.00;99.90;;;;;;5121239;27;20498;-68
2022/02/18 09:38:13;;;;;;;2.92;1.38;;;9.10;99.90;;;;;;5097593;28;20055;-68
2022/02/18 09:40:39;;;;;;;4.28;1.48;;;9.10;99.90;;;;;;5108127;28;20476;-68
2022/02/18 09:43:05;;;;;;;1.27;0.77;;;9.20;99.90;;;;;;5094857;27;20079;-68
2022/02/18 09:45:31;;;;;;;2.30;1.15;;;9.20;99.90;;;;;;5112565;27;20072;-68
2022/02/18 09:47:57;;;;;;;8.20;1.77;;;9.30;99.90;;;;;;5092188;28;20020;-68
2022/02/18 09:50:24;;;;;;;22.55;1.98;;;9.40;99.90;;;;;;5092443;28;20028;-68
2022/02/18 09:52:49;;;;;;;5.60;1.05;;;9.40;99.90;;;;;;5094599;28;20105;-68
2022/02/18 09:55:15;;;;;;;3.42;0.90;;;9.50;99.90;;;;;;5108301;28;20023;-68
2022/02/18 09:57:45;;;;;;;1.73;1.20;;;9.60;99.90;;;;;;5091942;28;20148;-68
2022/02/18 10:00:12;;;;;;;1.02;0.75;;;9.60;99.90;;;;;;5109949;28;20353;-68
2022/02/18 10:02:38;;;;;;;1.55;0.90;;;9.60;99.90;;;;;;5109753;28;20077;-68
2022/02/18 10:05:04;;;;;;;0.80;0.70;;;9.60;99.90;;;;;;5110447;28;20034;-68
2022/02/18 10:07:34;;;;;;;1.05;0.80;;;9.60;99.90;;;;;;5104132;28;20020;-68
2022/02/18 10:10:12;;;;;;;2.43;1.50;;;9.60;99.90;;;;;;5108058;28;20110;-68
2022/02/18 10:12:38;;;;;;;1.50;0.85;;;9.60;99.90;;;;;;5108045;28;20458;-68
2022/02/18 10:15:09;;;;;;;1.10;0.70;;;9.70;99.90;;;;;;5104561;28;20020;-68
2022/02/18 10:17:43;;;;;;;3.17;1.35;;;9.70;99.90;;;;;;5092442;28;20028;-67
2022/02/18 10:20:20;;;;;;;1.13;0.80;;;9.70;99.90;;;;;;5088024;28;20016;-67
2022/02/18 10:23:04;;;;;;;3.53;1.10;;;9.80;99.90;;;;;;5107735;28;20024;-68
2022/02/18 10:25:36;;;;;;;2.08;0.93;;;9.80;99.90;;;;;;5091563;28;20024;-68
2022/02/18 10:28:04;;;;;;;6.72;2.05;;;9.80;99.90;;;;;;5106597;28;20044;-68
2022/02/18 10:30:31;;;;;;;1.70;1.00;;;9.80;99.90;;;;;;5091961;28;20495;-68
2022/02/18 10:32:58;;;;;;;2.55;1.73;;;9.90;99.90;;;;;;5107471;28;20020;-68
2022/02/18 10:35:32;;;;;;;0.88;0.80;;;10.00;99.90;;;;;;5110861;28;20076;-68
2022/02/18 10:37:58;;;;;;;4.10;1.00;;;10.00;99.90;;;;;;5109761;28;20024;-68
2022/02/18 10:40:24;;;;;;;1.98;0.85;;;10.00;99.90;;;;;;5086386;28;20031;-68
2022/02/18 10:42:52;;;;;;;0.60;0.60;;;10.00;99.90;;;;;;5092995;28;20031;-68
2022/02/18 10:45:19;;;;;;;2.40;1.05;;;10.10;99.90;;;;;;5101560;27;20040;-67
2022/02/18 10:47:46;;;;;;;1.83;0.98;;;10.10;99.90;;;;;;5107290;28;20537;-68
2022/02/18 10:50:22;;;;;;;2.58;1.00;;;10.10;99.90;;;;;;5093811;28;20468;-68
2022/02/18 10:53:10;;;;;;;2.72;0.90;;;10.20;99.90;;;;;;5088958;27;20020;-69
2022/02/18 10:55:58;;;;;;;1.67;0.90;;;10.20;99.90;;;;;;5105382;27;20061;-68
2022/02/18 10:58:26;;;;;;;2.35;1.13;;;10.20;99.90;;;;;;5110297;27;20035;-69
2022/02/18 11:01:21;;;;;;;0.60;0.60;;;10.30;99.90;;;;;;5094178;28;20126;-68
2022/02/18 11:03:46;;;;;;;0.60;0.60;;;10.40;99.90;;;;;;5104482;28;20043;-68
2022/02/18 11:06:33;;;;;;;5.63;1.35;;;10.50;99.90;;;;;;5100958;28;20032;-68
2022/02/18 11:09:05;;;;;;;1.13;0.82;;;10.40;99.90;;;;;;5107377;27;20076;-69
2022/02/18 11:11:37;;;;;;;0.75;0.75;;;10.50;99.90;;;;;;5103051;28;20034;-69
2022/02/18 11:14:04;;;;;;;1.23;0.82;;;10.40;99.90;;;;;;5107146;27;20031;-69
2022/02/18 11:16:33;;;;;;;3.35;1.00;;;10.50;99.90;;;;;;5104866;27;20489;-69
2022/02/18 11:18:59;;;;;;;2.20;0.93;;;10.40;99.90;;;;;;5110669;28;20034;-69
2022/02/18 11:21:27;;;;;;;0.75;0.68;;;10.40;99.90;;;;;;5102500;27;20073;-69
2022/02/18 11:23:57;;;;;;;0.98;0.80;;;10.40;99.90;;;;;;5110671;27;20019;-69
2022/02/18 11:26:26;;;;;;;1.27;0.77;;;10.40;99.90;;;;;;5093028;28;20395;-69
2022/02/18 11:28:53;;;;;;;3.30;0.88;;;10.40;99.90;;;;;;5087723;28;20044;-69
2022/02/18 11:31:23;;;;;;;3.15;0.88;;;10.50;99.90;;;;;;5089128;28;20027;-69
2022/02/18 11:34:29;;;;;;;1.42;0.88;;;10.60;99.90;;;;;;5107190;27;20035;-69
2022/02/18 11:37:20;;;;;;;2.55;1.00;;;10.70;99.90;;;;;;5085311;28;20487;-69
2022/02/18 11:39:45;;;;;;;;;;;10.70;99.90;;;;;;5106519;28;20424;-69
2022/02/18 11:42:39;;;;;;;1.13;0.80;;;10.70;99.90;;;;;;5085793;28;19912;-69
2022/02/18 11:45:16;;;;;;;0.85;0.80;;;10.70;99.90;;;;;;5104565;28;20019;-69
2022/02/18 11:47:42;;;;;;;1.40;1.30;;;10.80;99.90;;;;;;5105701;27;20062;-69
2022/02/18 11:50:11;;;;;;;1.27;0.63;;;11.00;99.90;;;;;;5106283;27;20033;-69
2022/02/18 11:52:44;;;;;;;0.98;0.73;;;11.00;99.90;;;;;;5107743;28;20027;-70
2022/02/18 11:55:31;;;;;;;0.90;0.77;;;11.00;99.90;;;;;;5109909;27;20031;-69
2022/02/18 11:57:58;;;;;;;1.85;0.70;;;11.10;99.90;;;;;;5102203;28;20053;-69
2022/02/18 12:00:44;;;;;;;3.67;0.80;;;11.20;99.90;;;;;;5103679;27;20059;-69
2022/02/18 12:03:21;;;;;;;1.75;0.93;;;11.30;99.90;;;;;;5106897;27;20023;-69
2022/02/18 12:06:09;;;;;;;0.90;0.70;;;11.20;99.90;;;;;;5088476;28;20024;-69
2022/02/18 12:08:39;;;;;;;0.60;0.60;;;11.30;99.90;;;;;;5106220;27;20023;-69
2022/02/18 12:11:12;;;;;;;0.73;0.70;;;11.30;99.90;;;;;;5099179;28;20031;-69
2022/02/18 12:14:13;;;;;;;1.10;0.70;;;11.40;99.90;;;;;;5087828;28;20486;-69
2022/02/18 12:16:40;;;;;;;0.50;0.50;;;11.50;99.90;;;;;;5103182;28;20069;-69
2022/02/18 12:19:13;;;;;;;2.20;0.80;;;11.60;99.90;;;;;;5102428;28;20431;-69
2022/02/18 12:22:03;;;;;;;1.55;1.08;;;11.70;99.90;;;;;;5088966;28;20392;-69
2022/02/18 12:24:53;;;;;;;1.92;1.00;;;11.60;99.90;;;;;;5105303;28;20057;-69
2022/02/18 12:27:19;;;;;;;0.87;0.70;;;11.60;99.90;;;;;;5106103;28;20127;-69
2022/02/18 12:29:47;;;;;;;1.05;0.70;;;11.70;99.90;;;;;;5101728;28;20883;-70
2022/02/18 12:32:14;;;;;;;0.70;0.70;;;11.70;99.90;;;;;;5086495;28;20020;-69
2022/02/18 12:34:41;;;;;;;2.67;1.23;;;11.70;99.90;;;;;;5089736;28;20119;-69
2022/02/18 12:37:08;;;;;;;1.00;0.70;;;11.70;99.90;;;;;;5086091;28;20024;-69
2022/02/18 12:39:41;;;;;;;1.67;0.68;;;11.70;99.90;;;;;;5101287;28;20054;-69
2022/02/18 12:42:14;;;;;;;0.63;0.60;;;11.60;99.90;;;;;;5103659;28;20077;-68
2022/02/18 12:44:47;;;;;;;1.30;0.90;;;11.70;99.90;;;;;;5104143;28;20074;-68
2022/02/18 12:47:20;;;;;;;0.60;0.60;;;11.70;99.90;;;;;;5095178;28;20112;-70
2022/02/18 12:49:46;;;;;;;1.60;1.25;;;11.80;99.90;;;;;;5082824;28;20020;-70
2022/02/18 12:52:12;;;;;;;0.60;0.60;;;11.80;99.90;;;;;;5103235;28;20092;-70
2022/02/18 12:54:50;;;;;;;0.60;0.60;;;11.70;99.90;;;;;;5085010;28;20380;-70
2022/02/18 12:57:21;;;;;;;0.68;0.65;;;11.70;99.90;;;;;;5100487;28;20077;-70